Time;durP1;ratioP1;P1;durP2;ratioP2;P2;SDS_P1;SDS_P2;PMS_P1;PMS_P2;Temp;Humidity;BMP_temperature;BMP_pressure;BME280_temperature;BME280_humidity;BME280_pressure;Samples;Min_cycle;Max_cycle;Signal;HPM_P1;HPM_P2
2022/08/25 00:00:21;;;;;;;5.43;2.47;;;22.50;94.30;;;;;;5067478;28;20049;-89
2022/08/25 00:02:50;;;;;;;7.45;2.08;;;22.40;94.50;;;;;;5049288;28;20049;-89
2022/08/25 00:05:25;;;;;;;5.60;2.22;;;22.50;94.50;;;;;;5049694;28;20049;-89
2022/08/25 00:07:56;;;;;;;4.20;2.22;;;22.50;94.50;;;;;;5050134;28;20052;-89
2022/08/25 00:10:24;;;;;;;2.72;1.80;;;22.50;94.50;;;;;;5076130;28;20049;-89
2022/08/25 00:12:52;;;;;;;5.00;1.95;;;22.40;94.60;;;;;;5064619;28;20068;-88
2022/08/25 00:15:22;;;;;;;2.30;1.73;;;22.40;94.70;;;;;;5073162;28;20067;-89
2022/08/25 00:17:50;;;;;;;2.50;2.10;;;22.40;94.80;;;;;;5074500;28;20045;-88
2022/08/25 00:20:18;;;;;;;4.65;1.90;;;22.40;94.90;;;;;;5064208;28;20060;-88
2022/08/25 00:22:47;;;;;;;4.40;2.03;;;22.40;94.90;;;;;;5064675;28;20044;-88
2022/08/25 00:25:16;;;;;;;2.55;1.40;;;22.30;95.00;;;;;;5064569;28;20061;-87
2022/08/25 00:27:46;;;;;;;8.95;2.53;;;22.20;95.00;;;;;;5064776;28;20056;-89
2022/08/25 00:30:39;;;;;;;5.00;1.83;;;22.10;95.30;;;;;;5045172;28;20045;-89
2022/08/25 00:33:07;;;;;;;4.55;2.00;;;22.00;95.90;;;;;;5063793;28;20056;-87
2022/08/25 00:35:35;;;;;;;4.05;2.03;;;22.00;95.60;;;;;;5041961;28;20054;-87
2022/08/25 00:38:09;;;;;;;3.65;1.75;;;22.00;95.70;;;;;;5060168;28;20044;-87
2022/08/25 00:40:38;;;;;;;3.92;1.85;;;22.00;95.70;;;;;;5054966;28;20408;-87
2022/08/25 00:43:07;;;;;;;5.10;2.17;;;22.00;95.70;;;;;;5055198;28;20412;-86
2022/08/25 00:45:37;;;;;;;4.78;2.80;;;22.00;95.70;;;;;;5055085;28;20064;-87
2022/08/25 00:48:05;;;;;;;3.85;2.08;;;22.00;95.80;;;;;;5065105;28;20399;-86
2022/08/25 00:50:34;;;;;;;7.93;1.98;;;21.90;96.00;;;;;;5036977;28;20037;-87
2022/08/25 00:53:04;;;;;;;4.47;2.00;;;21.80;96.20;;;;;;5036028;28;20052;-84
2022/08/25 00:55:39;;;;;;;7.43;2.25;;;21.70;96.40;;;;;;5036618;28;20053;-87
2022/08/25 00:58:12;;;;;;;6.18;2.75;;;21.70;96.50;;;;;;5037171;28;20079;-88
2022/08/25 01:00:48;;;;;;;5.13;1.83;;;21.70;96.80;;;;;;5037550;28;20072;-87
2022/08/25 01:03:17;;;;;;;4.53;2.47;;;21.60;96.70;;;;;;5037907;28;20072;-86
2022/08/25 01:05:48;;;;;;;6.07;2.30;;;21.50;96.80;;;;;;5037510;28;20033;-87
2022/08/25 01:08:19;;;;;;;4.15;1.95;;;21.50;96.90;;;;;;5050076;28;20057;-86
2022/08/25 01:10:48;;;;;;;;;;;21.50;97.00;;;;;;5067240;28;20045;-89
2022/08/25 01:13:25;;;;;;;8.43;2.22;;;21.50;97.60;;;;;;5053750;28;19921;-87
2022/08/25 01:15:55;;;;;;;5.50;2.72;;;21.50;97.10;;;;;;5068052;28;20044;-87
2022/08/25 01:18:24;;;;;;;5.38;2.17;;;21.50;97.10;;;;;;5054058;28;20052;-87
2022/08/25 01:20:58;;;;;;;3.97;1.80;;;21.50;97.20;;;;;;5052630;28;20041;-87
2022/08/25 01:23:26;;;;;;;10.02;2.25;;;21.60;97.20;;;;;;5053270;28;20045;-88
2022/08/25 01:26:12;;;;;;;3.90;1.77;;;21.60;97.20;;;;;;5039168;28;20064;-87
2022/08/25 01:29:19;;;;;;;4.38;3.10;;;21.60;97.40;;;;;;5043608;28;20056;-87
2022/08/25 01:31:30;;;;;;;5.57;3.88;;;21.60;97.30;;;;;;5047499;28;20049;-87
2022/08/25 01:33:59;;;;;;;3.65;2.22;;;21.60;97.60;;;;;;5017072;28;20064;-87
2022/08/25 01:36:28;;;;;;;3.35;1.70;;;21.60;97.50;;;;;;5043413;28;20527;-87
2022/08/25 01:38:57;;;;;;;4.93;2.13;;;21.60;97.50;;;;;;5034549;28;20045;-88
2022/08/25 01:41:43;;;;;;;4.05;2.47;;;21.70;97.50;;;;;;5051546;28;20057;-87
2022/08/25 01:44:11;;;;;;;7.22;2.45;;;21.70;97.70;;;;;;5019618;28;20053;-87
2022/08/25 01:46:43;;;;;;;8.98;3.33;;;21.70;97.70;;;;;;5026083;28;20056;-89
2022/08/25 01:49:11;;;;;;;6.45;2.80;;;21.70;97.70;;;;;;5032614;28;20072;-87
2022/08/25 01:51:46;;;;;;;8.93;2.15;;;21.80;97.80;;;;;;5040822;28;20053;-87
2022/08/25 01:54:14;;;;;;;7.80;4.13;;;21.90;97.70;;;;;;5051832;28;20056;-86
2022/08/25 01:56:42;;;;;;;9.73;2.60;;;22.00;97.70;;;;;;5051299;28;20041;-90
2022/08/25 01:59:10;;;;;;;6.18;2.60;;;22.00;97.60;;;;;;5050871;28;20045;-87
2022/08/25 02:01:37;;;;;;;5.00;2.45;;;22.10;97.60;;;;;;5039002;28;20045;-89
2022/08/25 02:04:06;;;;;;;7.18;3.00;;;22.10;97.50;;;;;;5051316;28;20044;-87
2022/08/25 02:06:34;;;;;;;4.80;2.60;;;22.10;97.50;;;;;;5068161;28;20041;-88
2022/08/25 02:09:09;;;;;;;3.95;2.22;;;22.10;97.50;;;;;;5068404;28;20048;-89
2022/08/25 02:11:40;;;;;;;5.75;2.40;;;22.10;97.50;;;;;;5053359;28;20384;-89
2022/08/25 02:14:10;;;;;;;;;;;22.10;97.40;;;;;;5054346;28;20049;-90
2022/08/25 02:16:40;;;;;;;9.57;2.92;;;22.10;97.70;;;;;;5036708;28;19937;-89
2022/08/25 02:19:10;;;;;;;4.93;2.63;;;22.20;97.40;;;;;;5037649;28;20504;-86
2022/08/25 02:21:38;;;;;;;7.00;2.60;;;22.20;97.40;;;;;;5052240;28;20049;-89
2022/08/25 02:24:07;;;;;;;5.28;2.85;;;22.20;97.50;;;;;;5047149;28;20049;-89
2022/08/25 02:26:35;;;;;;;5.80;2.83;;;22.20;97.70;;;;;;5015273;28;20052;-89
2022/08/25 02:29:06;;;;;;;8.00;2.78;;;22.00;97.90;;;;;;5048427;28;20079;-88
2022/08/25 02:31:35;;;;;;;8.45;3.63;;;22.00;97.90;;;;;;5044313;28;20056;-89
2022/08/25 02:34:04;;;;;;;6.00;2.53;;;21.90;98.00;;;;;;5051445;28;20041;-89
2022/08/25 02:36:32;;;;;;;8.75;3.10;;;21.90;98.20;;;;;;5021987;28;20056;-89
2022/08/25 02:39:01;;;;;;;9.38;3.58;;;21.80;98.70;;;;;;5064187;28;20053;-89
2022/08/25 02:41:32;;;;;;;9.23;3.65;;;21.70;99.00;;;;;;5067256;28;20035;-88
2022/08/25 02:44:01;;;;;;;11.05;3.92;;;21.70;99.30;;;;;;5024883;28;20407;-89
2022/08/25 02:46:33;;;;;;;6.90;3.53;;;21.70;99.70;;;;;;5054252;28;20049;-90
2022/08/25 02:49:01;;;;;;;9.82;3.97;;;21.60;99.90;;;;;;5034119;28;20507;-89
2022/08/25 02:51:30;;;;;;;14.77;4.53;;;21.60;99.90;;;;;;5035255;28;20049;-89
2022/08/25 02:54:00;;;;;;;10.90;4.68;;;21.60;99.90;;;;;;5051875;28;20060;-89
2022/08/25 02:56:30;;;;;;;10.30;3.97;;;21.60;99.90;;;;;;5053566;28;20068;-89
2022/08/25 02:58:59;;;;;;;7.93;3.72;;;21.60;99.90;;;;;;5034028;28;20060;-89
2022/08/25 03:01:27;;;;;;;13.45;4.10;;;21.50;99.90;;;;;;5053413;28;20045;-88
2022/08/25 03:03:56;;;;;;;9.95;3.45;;;21.50;99.90;;;;;;5065052;28;20037;-88
2022/08/25 03:06:24;;;;;;;13.32;3.45;;;21.50;99.90;;;;;;5067282;28;20049;-89
2022/08/25 03:08:52;;;;;;;8.35;2.92;;;21.50;99.90;;;;;;5045210;28;20412;-88
2022/08/25 03:11:20;;;;;;;9.02;3.65;;;21.50;99.90;;;;;;5051792;28;20059;-88
2022/08/25 03:13:49;;;;;;;6.95;3.10;;;21.50;99.90;;;;;;5040898;28;20060;-89
2022/08/25 03:16:19;;;;;;;8.30;3.78;;;21.50;99.90;;;;;;5040205;28;20509;-88
2022/08/25 03:18:47;;;;;;;10.85;3.78;;;21.50;99.90;;;;;;5023329;28;20076;-88
2022/08/25 03:21:16;;;;;;;8.20;3.33;;;21.50;99.90;;;;;;5034455;28;20053;-86
2022/08/25 03:24:11;;;;;;;5.22;2.75;;;21.50;99.90;;;;;;5056997;28;20041;-88
2022/08/25 03:26:54;;;;;;;10.32;3.28;;;21.50;99.90;;;;;;5025775;28;20048;-88
2022/08/25 03:29:25;;;;;;;8.82;2.97;;;21.50;99.90;;;;;;5036312;28;20064;-89
2022/08/25 03:31:56;;;;;;;5.45;2.72;;;21.50;99.90;;;;;;5055635;28;20041;-89
2022/08/25 03:34:28;;;;;;;5.43;3.25;;;21.40;99.90;;;;;;5041012;28;20064;-88
2022/08/25 03:36:57;;;;;;;6.88;3.25;;;21.40;99.90;;;;;;5051183;28;20048;-88
2022/08/25 03:39:25;;;;;;;5.25;3.17;;;21.40;99.90;;;;;;5044481;28;20056;-88
2022/08/25 03:41:53;;;;;;;10.70;3.33;;;21.40;99.90;;;;;;5050736;28;20382;-88
2022/08/25 03:44:22;;;;;;;8.80;3.10;;;21.40;99.90;;;;;;5048733;28;20049;-88
2022/08/25 03:46:51;;;;;;;6.50;3.45;;;21.40;99.90;;;;;;5032853;28;20060;-88
2022/08/25 03:49:22;;;;;;;10.25;2.78;;;21.40;99.90;;;;;;5030304;28;20057;-88
2022/08/25 03:51:51;;;;;;;;;;;21.30;99.90;;;;;;5024406;28;20071;-89
2022/08/25 03:54:21;;;;;;;9.65;2.92;;;21.30;99.90;;;;;;5032969;28;19929;-89
2022/08/25 03:56:50;;;;;;;6.85;2.85;;;21.30;99.90;;;;;;5033325;28;20064;-89
2022/08/25 03:59:18;;;;;;;5.93;2.70;;;21.30;99.90;;;;;;5042945;28;20055;-88
2022/08/25 04:01:48;;;;;;;9.13;3.83;;;21.30;99.90;;;;;;5076108;28;20053;-88
2022/08/25 04:04:21;;;;;;;5.72;3.08;;;21.40;99.90;;;;;;5031260;28;20532;-88
2022/08/25 04:06:49;;;;;;;7.43;3.92;;;21.40;99.90;;;;;;5048746;28;20045;-89
2022/08/25 04:09:17;;;;;;;7.28;3.80;;;21.30;99.90;;;;;;5057628;28;20048;-88
2022/08/25 04:11:46;;;;;;;7.28;3.53;;;21.30;99.90;;;;;;5077131;28;20036;-88
2022/08/25 04:14:20;;;;;;;6.80;3.65;;;21.30;99.90;;;;;;5029312;28;20386;-87
2022/08/25 04:16:48;;;;;;;6.55;3.90;;;21.60;99.90;;;;;;5049959;28;20058;-88
2022/08/25 04:19:15;;;;;;;9.32;4.22;;;21.30;99.90;;;;;;5028293;28;20054;-88
2022/08/25 04:21:46;;;;;;;11.68;3.80;;;21.30;99.90;;;;;;5046563;28;20052;-89
2022/08/25 04:24:15;;;;;;;8.80;4.38;;;21.30;99.90;;;;;;5030822;28;20385;-88
2022/08/25 04:26:47;;;;;;;16.67;6.40;;;21.30;99.90;;;;;;5050788;28;20040;-88
2022/08/25 04:29:18;;;;;;;15.35;5.90;;;21.30;99.90;;;;;;5038959;28;20070;-88
2022/08/25 04:31:53;;;;;;;10.27;4.57;;;21.30;99.90;;;;;;5034145;28;20067;-88
2022/08/25 04:34:23;;;;;;;10.52;4.68;;;21.20;99.90;;;;;;5044247;28;20053;-88
2022/08/25 04:37:01;;;;;;;11.25;5.53;;;21.20;99.90;;;;;;5032908;28;20045;-89
2022/08/25 04:39:29;;;;;;;11.30;5.43;;;21.20;99.90;;;;;;5027027;28;20040;-88
2022/08/25 04:41:59;;;;;;;11.73;5.70;;;21.10;99.90;;;;;;5051800;28;20057;-87
2022/08/25 04:44:28;;;;;;;10.10;5.28;;;21.00;99.90;;;;;;5011787;28;20050;-90
2022/08/25 04:46:57;;;;;;;16.02;6.25;;;21.00;99.90;;;;;;5023800;28;20057;-88
2022/08/25 04:49:26;;;;;;;11.90;6.72;;;21.00;99.90;;;;;;4682377;28;9999745;-88
2022/08/25 04:51:55;;;;;;;13.00;6.03;;;21.00;99.90;;;;;;5049922;28;20049;-88
2022/08/25 04:54:23;;;;;;;17.02;7.00;;;21.00;99.90;;;;;;5050074;28;20054;-89
2022/08/25 04:56:51;;;;;;;14.52;7.47;;;21.00;99.90;;;;;;5050596;28;20049;-88
2022/08/25 04:59:22;;;;;;;15.35;6.72;;;20.90;99.90;;;;;;5048483;28;20049;-88
2022/08/25 05:01:57;;;;;;;16.92;7.72;;;20.90;99.90;;;;;;5050452;28;20045;-90
2022/08/25 05:04:25;;;;;;;23.50;10.10;;;20.70;99.90;;;;;;5039470;28;20057;-89
2022/08/25 05:06:55;;;;;;;17.20;8.40;;;20.70;99.90;;;;;;5050904;28;20060;-88
2022/08/25 05:09:26;;;;;;;20.17;9.27;;;20.60;99.90;;;;;;5033516;28;20048;-89
2022/08/25 05:11:54;;;;;;;24.48;11.05;;;20.60;99.90;;;;;;5032112;28;20046;-86
2022/08/25 05:14:23;;;;;;;16.35;7.75;;;20.50;99.90;;;;;;5030730;28;20052;-89
2022/08/25 05:16:56;;;;;;;21.38;10.80;;;20.50;99.90;;;;;;5045972;28;20061;-89
2022/08/25 05:19:25;;;;;;;14.15;8.00;;;20.50;99.90;;;;;;5044243;28;20045;-87
2022/08/25 05:21:53;;;;;;;18.98;8.85;;;20.50;99.90;;;;;;5036198;28;20045;-89
2022/08/25 05:24:24;;;;;;;;;;;20.50;99.90;;;;;;5055359;28;20060;-88
2022/08/25 05:26:52;;;;;;;18.60;8.82;;;20.40;99.90;;;;;;5057041;28;19929;-86
2022/08/25 05:29:21;;;;;;;20.63;9.70;;;20.40;99.90;;;;;;5055286;28;20045;-88
2022/08/25 05:31:49;;;;;;;21.00;8.57;;;20.40;99.90;;;;;;5054303;28;20492;-86
2022/08/25 05:34:19;;;;;;;14.63;6.93;;;20.40;99.90;;;;;;5031345;28;20057;-87
2022/08/25 05:36:48;;;;;;;15.13;7.70;;;20.40;99.90;;;;;;5051211;28;20060;-86
2022/08/25 05:39:16;;;;;;;18.42;9.20;;;20.40;99.90;;;;;;5041344;28;20404;-87
2022/08/25 05:41:44;;;;;;;16.67;8.15;;;20.40;99.90;;;;;;5042707;28;20049;-86
2022/08/25 05:44:12;;;;;;;18.95;8.57;;;20.40;99.90;;;;;;5069973;28;20053;-87
2022/08/25 05:46:44;;;;;;;18.58;9.35;;;20.40;99.90;;;;;;5061372;28;20045;-87
2022/08/25 05:49:12;;;;;;;17.48;8.80;;;20.40;99.90;;;;;;5069334;28;20083;-88
2022/08/25 05:51:39;;;;;;;16.05;8.48;;;20.40;99.90;;;;;;5050977;28;20056;-87
2022/08/25 05:54:07;;;;;;;16.80;8.70;;;20.30;99.90;;;;;;5056345;28;20041;-87
2022/08/25 05:56:34;;;;;;;19.33;10.73;;;20.30;99.90;;;;;;5056308;28;20143;-87
2022/08/25 05:59:02;;;;;;;17.55;8.13;;;20.30;99.90;;;;;;5030360;28;20041;-87
2022/08/25 06:04:22;;;;;;;15.98;9.13;;;20.30;99.90;;;;;;5057013;28;20594;-87
2022/08/25 06:06:52;;;;;;;17.45;9.18;;;20.30;99.90;;;;;;5047591;28;20049;-88
2022/08/25 06:09:22;;;;;;;15.35;8.70;;;20.30;99.90;;;;;;5059707;28;20060;-87
2022/08/25 06:11:50;;;;;;;17.65;8.93;;;20.30;99.90;;;;;;5036434;28;20052;-88
2022/08/25 06:14:22;;;;;;;20.13;8.93;;;20.30;99.90;;;;;;5023622;28;20053;-86
2022/08/25 06:16:52;;;;;;;14.75;8.18;;;20.30;99.90;;;;;;5036699;28;20332;-87
2022/08/25 06:19:22;;;;;;;14.35;8.18;;;20.30;99.90;;;;;;5018473;28;20045;-90
2022/08/25 06:21:54;;;;;;;21.33;9.35;;;20.20;99.90;;;;;;5043828;28;20056;-86
2022/08/25 06:24:23;;;;;;;15.35;8.75;;;20.30;99.90;;;;;;5065099;28;20049;-88
2022/08/25 06:26:52;;;;;;;17.88;10.43;;;20.20;99.90;;;;;;5061241;28;20041;-88
2022/08/25 06:29:20;;;;;;;18.08;10.73;;;20.20;99.90;;;;;;5051094;28;20049;-88
2022/08/25 06:31:48;;;;;;;13.95;8.30;;;20.20;99.90;;;;;;5031971;28;20055;-87
2022/08/25 06:34:17;;;;;;;16.23;9.38;;;20.20;99.90;;;;;;5023243;28;20052;-89
2022/08/25 06:36:45;;;;;;;18.58;10.95;;;20.20;99.90;;;;;;5047872;28;20052;-88
2022/08/25 06:39:16;;;;;;;22.90;11.70;;;20.20;99.90;;;;;;5031493;28;20045;-88
2022/08/25 06:41:43;;;;;;;20.98;12.55;;;20.20;99.90;;;;;;5050194;28;20084;-87
2022/08/25 06:44:11;;;;;;;20.27;12.55;;;20.20;99.90;;;;;;5032897;28;20277;-88
2022/08/25 06:46:39;;;;;;;18.73;12.02;;;20.20;99.90;;;;;;5031884;28;20053;-89
2022/08/25 06:49:07;;;;;;;22.27;12.18;;;20.10;99.90;;;;;;5031239;28;20053;-89
2022/08/25 06:51:37;;;;;;;21.00;14.18;;;20.20;99.90;;;;;;5044674;28;20037;-88
2022/08/25 06:54:08;;;;;;;18.63;12.15;;;20.20;99.90;;;;;;5033297;28;20049;-88
2022/08/25 06:56:41;;;;;;;18.88;11.07;;;20.20;99.90;;;;;;5048608;28;20963;-88
2022/08/25 06:59:09;;;;;;;20.60;11.88;;;20.20;99.90;;;;;;5035547;28;20051;-87
2022/08/25 07:01:40;;;;;;;20.48;12.52;;;20.10;99.90;;;;;;5031839;28;20041;-88
2022/08/25 07:04:10;;;;;;;21.08;12.15;;;20.10;99.90;;;;;;5049270;28;20044;-87
2022/08/25 07:06:40;;;;;;;20.27;11.33;;;20.10;99.90;;;;;;5053657;28;20053;-88
2022/08/25 07:09:10;;;;;;;16.98;10.45;;;20.10;99.90;;;;;;5032735;28;20056;-89
2022/08/25 07:11:39;;;;;;;16.15;9.30;;;20.10;99.90;;;;;;5032736;28;20052;-88
2022/08/25 07:14:10;;;;;;;18.98;11.40;;;20.10;99.90;;;;;;5032233;28;20060;-87
2022/08/25 07:16:39;;;;;;;18.27;10.32;;;20.10;99.90;;;;;;5049192;28;20498;-88
2022/08/25 07:19:10;;;;;;;17.63;9.88;;;20.10;99.90;;;;;;5036515;28;20044;-88
2022/08/25 07:21:44;;;;;;;18.52;11.18;;;20.10;99.90;;;;;;5022424;28;20052;-88
2022/08/25 07:24:15;;;;;;;17.35;9.43;;;20.10;99.90;;;;;;5036737;28;20052;-88
2022/08/25 07:26:46;;;;;;;18.50;11.38;;;20.20;99.90;;;;;;5032055;28;20056;-89
2022/08/25 07:29:18;;;;;;;15.48;9.95;;;20.10;99.90;;;;;;5031833;28;20373;-89
2022/08/25 07:31:59;;;;;;;20.60;12.35;;;20.10;99.90;;;;;;5032269;28;20049;-89
2022/08/25 07:37:21;;;;;;;18.50;10.77;;;20.10;99.90;;;;;;5044222;28;20048;-87
2022/08/25 07:40:13;;;;;;;17.90;10.30;;;20.10;99.90;;;;;;5046971;28;20060;-87
2022/08/25 07:42:42;;;;;;;16.90;10.57;;;20.10;99.90;;;;;;5030746;28;20048;-87
2022/08/25 07:45:11;;;;;;;19.60;11.73;;;20.20;99.90;;;;;;5047481;28;20045;-88
2022/08/25 07:47:39;;;;;;;19.55;10.18;;;20.20;99.90;;;;;;5047578;28;20489;-87
2022/08/25 07:50:10;;;;;;;16.23;9.90;;;20.20;99.90;;;;;;5047833;28;20515;-88
2022/08/25 07:52:40;;;;;;;15.90;9.25;;;20.20;99.90;;;;;;5031395;28;20060;-88
2022/08/25 07:55:08;;;;;;;22.05;10.02;;;20.30;99.90;;;;;;5046921;28;20059;-88
2022/08/25 07:57:40;;;;;;;16.02;8.70;;;20.20;99.90;;;;;;5049487;28;20492;-88
2022/08/25 08:00:15;;;;;;;18.92;8.70;;;20.30;99.90;;;;;;5035360;28;20040;-89
2022/08/25 08:02:43;;;;;;;15.68;8.68;;;20.30;99.90;;;;;;5073897;28;20053;-90
2022/08/25 08:05:12;;;;;;;15.95;9.60;;;20.30;99.90;;;;;;5082081;28;20047;-88
2022/08/25 08:07:40;;;;;;;15.82;9.27;;;20.30;99.90;;;;;;5065296;28;20041;-90
2022/08/25 08:10:12;;;;;;;17.50;10.35;;;20.30;99.90;;;;;;5068024;28;20048;-89
2022/08/25 08:13:01;;;;;;;17.35;9.95;;;20.30;99.90;;;;;;5069479;28;20049;-90
2022/08/25 08:15:29;;;;;;;17.80;9.52;;;20.30;99.90;;;;;;5045198;28;20069;-89
2022/08/25 08:17:58;;;;;;;17.20;9.38;;;20.30;99.90;;;;;;5067574;28;20043;-88
2022/08/25 08:20:27;;;;;;;21.65;11.35;;;20.30;99.90;;;;;;5053441;28;20051;-89
2022/08/25 08:22:55;;;;;;;16.45;9.45;;;20.30;99.90;;;;;;5030008;28;20041;-88
2022/08/25 08:25:24;;;;;;;15.80;9.40;;;20.40;99.90;;;;;;5053152;28;20575;-88
2022/08/25 08:27:55;;;;;;;14.70;8.80;;;20.20;99.90;;;;;;5038495;28;20590;-88
2022/08/25 08:30:23;;;;;;;14.73;7.85;;;20.40;99.90;;;;;;5031582;28;20140;-87
2022/08/25 08:32:53;;;;;;;14.25;7.55;;;20.40;99.90;;;;;;5032525;28;20056;-88
2022/08/25 08:35:40;;;;;;;12.52;6.70;;;20.40;99.90;;;;;;5066843;28;20547;-88
2022/08/25 08:38:11;;;;;;;12.85;7.88;;;20.40;99.90;;;;;;5040284;28;20056;-88
2022/08/25 08:44:38;;;;;;;12.40;7.35;;;20.40;99.90;;;;;;5071905;28;20496;-90
2022/08/25 08:47:36;;;;;;;13.05;6.15;;;20.40;99.90;;;;;;5048365;28;20053;-89
2022/08/25 08:50:07;;;;;;;9.43;5.50;;;20.30;99.90;;;;;;5072168;28;20051;-89
2022/08/25 08:52:45;;;;;;;8.63;5.45;;;20.30;99.90;;;;;;5053442;28;20064;-90
2022/08/25 08:55:29;;;;;;;13.13;5.57;;;20.30;99.90;;;;;;5048443;28;20045;-89
2022/08/25 08:58:01;;;;;;;9.77;5.18;;;20.40;99.90;;;;;;5048486;28;20523;-90
2022/08/25 09:00:31;;;;;;;9.45;5.32;;;20.40;99.90;;;;;;5023735;28;20048;-88
2022/08/25 09:03:34;;;;;;;9.70;6.00;;;20.40;99.90;;;;;;5027625;28;20048;-88
2022/08/25 09:06:09;;;;;;;10.25;6.43;;;20.40;99.90;;;;;;5012315;28;20045;-88
2022/08/25 09:08:42;;;;;;;9.13;5.82;;;20.40;99.90;;;;;;5035249;28;20061;-88
2022/08/25 09:11:30;;;;;;;15.68;6.65;;;20.40;99.90;;;;;;5032329;28;20045;-89
2022/08/25 09:14:17;;;;;;;10.73;6.88;;;20.40;99.90;;;;;;5015282;28;20057;-89
2022/08/25 09:16:55;;;;;;;11.02;7.15;;;20.50;99.90;;;;;;5032310;28;20049;-88
2022/08/25 09:19:45;;;;;;;12.63;7.03;;;20.40;99.90;;;;;;5018188;28;20041;-86
2022/08/25 09:22:13;;;;;;;13.18;7.00;;;20.40;99.90;;;;;;5037856;28;20052;-88
2022/08/25 09:25:26;;;;;;;10.65;5.55;;;20.40;99.90;;;;;;5025326;28;20052;-87
2022/08/25 09:28:20;;;;;;;14.60;6.45;;;20.30;99.90;;;;;;5056119;28;20711;-88
2022/08/25 09:31:01;;;;;;;9.68;5.57;;;20.30;99.90;;;;;;5044737;28;20595;-88
2022/08/25 09:33:31;;;;;;;10.65;5.85;;;20.40;99.90;;;;;;5049172;28;20060;-87
2022/08/25 09:36:04;;;;;;;11.65;6.05;;;20.30;99.90;;;;;;5063373;28;20117;-87
2022/08/25 09:38:33;;;;;;;8.43;4.85;;;20.30;99.90;;;;;;5045228;28;20063;-87
2022/08/25 09:41:02;;;;;;;9.52;5.60;;;20.20;99.90;;;;;;5045435;28;20045;-87
2022/08/25 09:43:39;;;;;;;10.43;6.22;;;20.20;99.90;;;;;;5044471;28;20048;-88
2022/08/25 09:46:15;;;;;;;9.85;5.13;;;20.20;99.90;;;;;;5025984;28;20548;-85
2022/08/25 09:48:50;;;;;;;6.03;4.70;;;20.10;99.90;;;;;;5041316;28;20053;-88
2022/08/25 09:51:27;;;;;;;10.55;5.90;;;20.10;99.90;;;;;;5027647;28;20084;-87
2022/08/25 09:54:05;;;;;;;17.63;5.43;;;20.10;99.90;;;;;;5043779;28;20582;-88
2022/08/25 09:57:00;;;;;;;7.13;4.43;;;20.10;99.90;;;;;;5044381;28;20045;-87
2022/08/25 09:59:33;;;;;;;10.82;5.32;;;20.20;99.90;;;;;;5025832;28;20499;-87
2022/08/25 10:02:24;;;;;;;10.60;5.25;;;20.20;99.90;;;;;;5029140;28;20045;-87
2022/08/25 10:04:52;;;;;;;13.32;4.68;;;20.20;99.90;;;;;;5050362;28;20049;-87
2022/08/25 10:07:24;;;;;;;11.10;5.05;;;20.30;99.90;;;;;;5049344;28;20043;-88
2022/08/25 10:10:01;;;;;;;9.75;4.25;;;20.30;99.90;;;;;;5028553;28;20045;-87
2022/08/25 10:12:41;;;;;;;9.50;4.45;;;20.30;99.90;;;;;;5044523;28;20044;-86
2022/08/25 10:15:36;;;;;;;6.25;4.07;;;20.40;99.90;;;;;;5029369;28;20052;-89
2022/08/25 10:18:17;;;;;;;6.13;3.50;;;20.50;99.90;;;;;;5026191;28;20060;-87
2022/08/25 10:21:04;;;;;;;4.38;3.00;;;20.50;99.90;;;;;;5042332;28;21433;-87
2022/08/25 10:23:56;;;;;;;7.70;2.97;;;20.50;99.90;;;;;;5042014;28;20049;-89
2022/08/25 10:26:38;;;;;;;7.97;3.22;;;20.50;99.90;;;;;;5045711;28;20068;-87
2022/08/25 10:29:24;;;;;;;6.78;3.22;;;20.50;99.90;;;;;;5045530;28;20041;-87
2022/08/25 10:32:19;;;;;;;5.10;3.03;;;20.40;99.90;;;;;;5059514;28;20205;-86
2022/08/25 10:34:52;;;;;;;6.63;3.75;;;20.50;99.90;;;;;;5043987;28;20083;-87
2022/08/25 10:37:25;;;;;;;7.32;3.72;;;20.50;99.90;;;;;;5044307;28;20037;-88
2022/08/25 10:40:01;;;;;;;8.55;4.35;;;20.50;99.90;;;;;;5076023;28;20048;-88
2022/08/25 10:42:47;;;;;;;7.60;3.33;;;20.60;99.90;;;;;;5048945;28;20045;-87
2022/08/25 10:45:42;;;;;;;5.13;2.85;;;20.70;99.90;;;;;;5051772;28;20049;-87
2022/08/25 10:48:11;;;;;;;8.98;3.40;;;20.60;99.90;;;;;;5049264;28;20064;-88
2022/08/25 10:50:46;;;;;;;5.60;3.67;;;20.70;99.90;;;;;;5028318;28;20053;-88
2022/08/25 10:53:57;;;;;;;6.30;3.40;;;20.70;99.90;;;;;;5049788;28;20053;-88
2022/08/25 10:56:39;;;;;;;5.47;3.40;;;20.80;99.90;;;;;;5047987;28;20529;-87
2022/08/25 10:59:28;;;;;;;9.55;3.83;;;20.90;99.90;;;;;;5051018;28;20251;-88
2022/08/25 11:02:30;;;;;;;5.50;3.47;;;20.80;99.90;;;;;;5049096;28;20049;-88
2022/08/25 11:05:23;;;;;;;7.45;4.60;;;20.80;99.90;;;;;;5065550;28;20065;-88
2022/08/25 11:07:58;;;;;;;6.43;3.30;;;20.90;99.90;;;;;;5043510;28;20053;-88
2022/08/25 11:10:36;;;;;;;10.63;5.63;;;20.90;99.90;;;;;;5042742;28;20064;-88
2022/08/25 11:13:14;;;;;;;8.13;3.58;;;20.90;99.90;;;;;;5035185;28;20048;-88
2022/08/25 11:15:54;;;;;;;4.13;2.40;;;21.00;99.90;;;;;;5044731;28;20036;-88
2022/08/25 11:19:29;;;;;;;5.07;2.92;;;20.90;99.90;;;;;;5043456;28;20041;-88
2022/08/25 11:22:08;;;;;;;7.53;3.53;;;20.90;99.90;;;;;;5040912;28;20436;-88
2022/08/25 11:25:05;;;;;;;17.20;5.25;;;21.00;99.90;;;;;;5041455;28;20049;-89
2022/08/25 11:28:02;;;;;;;8.30;3.80;;;21.10;99.90;;;;;;5024721;28;20064;-87
2022/08/25 11:30:29;;;;;;;8.52;4.10;;;21.10;99.90;;;;;;5036957;28;20049;-88
2022/08/25 11:32:58;;;;;;;7.88;3.42;;;21.20;99.90;;;;;;5043303;28;20477;-88
2022/08/25 11:35:34;;;;;;;11.20;5.95;;;21.30;99.90;;;;;;5042597;28;20512;-89
2022/08/25 11:38:27;;;;;;;8.18;3.70;;;21.40;99.90;;;;;;5029225;28;20084;-88
2022/08/25 11:41:17;;;;;;;10.07;5.03;;;21.40;99.90;;;;;;5059452;28;20044;-87
2022/08/25 11:44:03;;;;;;;18.30;3.70;;;21.50;99.90;;;;;;5008348;28;20338;-87
2022/08/25 11:46:44;;;;;;;5.40;3.33;;;21.50;99.90;;;;;;5059076;28;20167;-88
2022/08/25 11:49:33;;;;;;;5.85;3.67;;;21.60;99.90;;;;;;5058879;28;20084;-88
2022/08/25 11:52:04;;;;;;;7.95;4.78;;;21.60;99.90;;;;;;5041439;28;20048;-88
2022/08/25 11:54:41;;;;;;;11.43;5.32;;;21.70;99.90;;;;;;5040764;28;20519;-88
2022/08/25 11:57:21;;;;;;;10.65;3.40;;;21.70;99.90;;;;;;5041875;28;20048;-87
2022/08/25 11:59:49;;;;;;;16.00;3.55;;;21.80;99.90;;;;;;5042653;28;20079;-90
2022/08/25 12:02:38;;;;;;;5.97;2.33;;;22.00;99.90;;;;;;5024021;28;20049;-88
2022/08/25 12:05:14;;;;;;;3.60;2.50;;;22.10;99.90;;;;;;5041428;28;20522;-88
2022/08/25 12:11:00;;;;;;;2.38;2.10;;;22.30;99.90;;;;;;5026480;28;20045;-88
2022/08/25 12:13:46;;;;;;;2.88;2.30;;;22.40;99.90;;;;;;5024239;28;20411;-88
2022/08/25 12:16:39;;;;;;;4.90;2.30;;;22.40;99.90;;;;;;5024793;28;20057;-86
2022/08/25 12:19:24;;;;;;;3.67;2.40;;;22.50;99.90;;;;;;5025761;28;20049;-88
2022/08/25 12:21:55;;;;;;;3.50;1.33;;;22.50;99.90;;;;;;5041500;28;20078;-87
2022/08/25 12:24:41;;;;;;;5.05;2.10;;;22.50;99.90;;;;;;5043265;28;20049;-89
2022/08/25 12:27:27;;;;;;;;;;;22.50;99.90;;;;;;5044498;28;20052;-86
2022/08/25 12:30:39;;;;;;;4.35;2.10;;;22.50;99.90;;;;;;5044278;28;19921;-88
2022/08/25 12:33:17;;;;;;;2.28;2.03;;;22.70;99.90;;;;;;5057920;28;20064;-89
2022/08/25 12:36:02;;;;;;;2.63;1.90;;;22.80;99.90;;;;;;5057213;28;20053;-89
2022/08/25 12:38:46;;;;;;;2.95;2.10;;;22.90;99.90;;;;;;5043204;28;20056;-87
2022/08/25 12:41:20;;;;;;;3.80;2.88;;;23.10;99.90;;;;;;5046389;28;20037;-88
2022/08/25 12:44:07;;;;;;;9.50;3.72;;;23.10;99.90;;;;;;5045501;28;20063;-88
2022/08/25 12:46:38;;;;;;;4.63;2.72;;;23.30;99.90;;;;;;5042675;28;20052;-88
2022/08/25 12:49:33;;;;;;;8.32;3.30;;;23.40;99.90;;;;;;5042277;28;20049;-89
2022/08/25 12:52:09;;;;;;;3.50;2.38;;;23.40;99.90;;;;;;5024861;28;20198;-88
2022/08/25 12:55:02;;;;;;;6.57;2.53;;;23.50;99.90;;;;;;5041215;28;20060;-88
2022/08/25 12:57:36;;;;;;;6.03;2.60;;;23.60;99.90;;;;;;5042792;28;20593;-88
2022/08/25 13:00:27;;;;;;;4.95;2.90;;;23.60;99.90;;;;;;5043796;28;20120;-89
2022/08/25 13:03:33;;;;;;;5.35;2.33;;;23.60;99.90;;;;;;5043158;28;20091;-88
2022/08/25 13:06:12;;;;;;;6.78;1.63;;;23.50;99.90;;;;;;5062293;28;20057;-88
2022/08/25 13:08:54;;;;;;;2.67;1.15;;;23.50;99.90;;;;;;5048301;28;20052;-87
2022/08/25 13:11:35;;;;;;;4.63;1.40;;;23.50;99.90;;;;;;5050167;28;20053;-88
2022/08/25 13:14:16;;;;;;;3.87;2.10;;;23.50;99.90;;;;;;5040762;28;20053;-89
2022/08/25 13:16:51;;;;;;;;;;;23.60;99.90;;;;;;5043064;28;20060;-89
2022/08/25 13:19:21;;;;;;;4.78;1.52;;;23.60;99.90;;;;;;5060040;28;19925;-88
2022/08/25 13:21:49;;;;;;;2.58;1.45;;;23.80;99.90;;;;;;5028627;28;20052;-88
2022/08/25 13:24:33;;;;;;;2.95;1.75;;;23.90;99.90;;;;;;5026143;28;20057;-87
2022/08/25 13:27:16;;;;;;;4.57;2.13;;;23.90;99.90;;;;;;5042602;28;20037;-86
2022/08/25 13:29:55;;;;;;;4.97;2.58;;;24.00;99.90;;;;;;5042787;28;20492;-86
2022/08/25 13:32:29;;;;;;;4.85;1.75;;;24.10;99.90;;;;;;5039925;28;20037;-85